Time;durP1;ratioP1;P1;durP2;ratioP2;P2;SDS_P1;SDS_P2;PMS_P1;PMS_P2;Temp;Humidity;BMP_temperature;BMP_pressure;BME280_temperature;BME280_humidity;BME280_pressure;Samples;Min_cycle;Max_cycle;Signal;HPM_P1;HPM_P2
2021/01/28 00:00:11;;;;;;;53.57;20.17;;;;;;;;;;5072209;28;20260;-67
2021/01/28 00:02:36;;;;;;;46.87;19.50;;;;;;;;;;5076714;28;20177;-68
2021/01/28 00:05:02;;;;;;;42.77;20.47;;;;;;;;;;5075206;28;20549;-68
2021/01/28 00:07:27;;;;;;;46.20;19.53;;;;;;;;;;5075341;28;20208;-68
2021/01/28 00:09:53;;;;;;;42.50;20.07;;;;;;;;;;5075883;28;20169;-68
2021/01/28 00:12:18;;;;;;;41.40;18.07;;;;;;;;;;5074582;28;20722;-68
2021/01/28 00:14:43;;;;;;;49.40;20.00;;;;;;;;;;5072681;28;20192;-67
2021/01/28 00:17:08;;;;;;;55.20;20.67;;;;;;;;;;5071213;28;20709;-67
2021/01/28 00:19:33;;;;;;;44.83;20.67;;;;;;;;;;5078293;28;20191;-68
2021/01/28 00:21:59;;;;;;;54.67;21.60;;;;;;;;;;5079133;28;20726;-67
2021/01/28 00:24:24;;;;;;;52.73;20.13;;;;;;;;;;5077438;28;20200;-69
2021/01/28 00:26:49;;;;;;;43.53;18.93;;;;;;;;;;5078723;28;20176;-68
2021/01/28 00:29:14;;;;;;;43.90;20.67;;;;;;;;;;5075178;28;20200;-68
2021/01/28 00:31:39;;;;;;;44.57;20.17;;;;;;;;;;5082810;28;20173;-68
2021/01/28 00:34:05;;;;;;;51.63;21.20;;;;;;;;;;5076679;28;20259;-68
2021/01/28 00:36:30;;;;;;;54.77;21.43;;;;;;;;;;5083714;28;20187;-68
2021/01/28 00:38:55;;;;;;;61.53;22.13;;;;;;;;;;5079170;28;20192;-68
2021/01/28 00:41:20;;;;;;;78.93;24.07;;;;;;;;;;5083826;28;20275;-67
2021/01/28 00:43:45;;;;;;;125.17;26.43;;;;;;;;;;5082285;28;20202;-68
2021/01/28 00:46:10;;;;;;;163.57;28.07;;;;;;;;;;5080472;28;20574;-68
2021/01/28 00:48:36;;;;;;;109.63;25.87;;;;;;;;;;5082736;28;20180;-68
2021/01/28 00:51:02;;;;;;;101.47;24.10;;;;;;;;;;5081208;28;20655;-68
2021/01/28 00:53:27;;;;;;;92.07;24.00;;;;;;;;;;5082991;28;20756;-68
2021/01/28 00:55:52;;;;;;;116.33;24.83;;;;;;;;;;5084892;28;20256;-68
2021/01/28 00:58:19;;;;;;;169.10;29.03;;;;;;;;;;5082941;28;20679;-67
2021/01/28 01:00:45;;;;;;;80.43;22.23;;;;;;;;;;5081683;28;20189;-68
2021/01/28 01:03:11;;;;;;;136.83;26.03;;;;;;;;;;5080848;28;20283;-68
2021/01/28 01:05:40;;;;;;;147.83;27.67;;;;;;;;;;5076723;28;20255;-68
2021/01/28 01:08:10;;;;;;;89.23;23.23;;;;;;;;;;5082015;28;20188;-68
2021/01/28 01:10:38;;;;;;;122.47;24.33;;;;;;;;;;5080364;28;20255;-68
2021/01/28 01:13:04;;;;;;;257.17;34.53;;;;;;;;;;5081415;28;20561;-68
2021/01/28 01:15:29;;;;;;;173.80;29.70;;;;;;;;;;5080463;28;20180;-68
2021/01/28 01:17:55;;;;;;;132.50;26.80;;;;;;;;;;5080094;28;20201;-69
2021/01/28 01:20:20;;;;;;;228.00;32.37;;;;;;;;;;5085158;28;20255;-70
2021/01/28 01:22:46;;;;;;;88.63;21.20;;;;;;;;;;5079430;28;20172;-67
2021/01/28 01:25:11;;;;;;;115.43;21.70;;;;;;;;;;5091060;28;20247;-67
2021/01/28 01:27:37;;;;;;;89.97;21.23;;;;;;;;;;5080913;28;20264;-69
2021/01/28 01:30:04;;;;;;;72.97;19.47;;;;;;;;;;5086544;28;20168;-69
2021/01/28 01:32:29;;;;;;;49.03;18.27;;;;;;;;;;5082697;28;20268;-69
2021/01/28 01:34:54;;;;;;;86.67;23.40;;;;;;;;;;5082884;28;20264;-68
2021/01/28 01:37:19;;;;;;;83.60;21.03;;;;;;;;;;5080040;28;20200;-69
2021/01/28 01:39:44;;;;;;;56.27;18.33;;;;;;;;;;5083143;28;20204;-69
2021/01/28 01:42:10;;;;;;;84.23;20.07;;;;;;;;;;5083477;28;20176;-69
2021/01/28 01:44:35;;;;;;;81.20;20.10;;;;;;;;;;5087215;28;20188;-69
2021/01/28 01:47:19;;;;;;;73.10;18.67;;;;;;;;;;5081238;28;20181;-69
2021/01/28 01:49:45;;;;;;;35.67;16.43;;;;;;;;;;5077699;28;20164;-69
2021/01/28 01:52:12;;;;;;;130.10;24.87;;;;;;;;;;5081096;28;20176;-69
2021/01/28 01:54:37;;;;;;;63.43;17.53;;;;;;;;;;5082635;28;20721;-69
2021/01/28 01:57:06;;;;;;;56.40;17.07;;;;;;;;;;5079991;28;20188;-69
2021/01/28 01:59:37;;;;;;;30.70;13.73;;;;;;;;;;5089137;28;20223;-68
2021/01/28 02:02:08;;;;;;;75.87;18.47;;;;;;;;;;5079219;28;20190;-69
2021/01/28 02:04:33;;;;;;;111.27;21.43;;;;;;;;;;5080308;28;20227;-69
2021/01/28 02:07:24;;;;;;;38.47;15.07;;;;;;;;;;5081887;28;20212;-69
2021/01/28 02:09:50;;;;;;;67.27;18.07;;;;;;;;;;5082830;28;20533;-69
2021/01/28 02:12:16;;;;;;;67.43;19.13;;;;;;;;;;5089710;28;20180;-69
2021/01/28 02:14:41;;;;;;;56.27;17.53;;;;;;;;;;5083709;28;20207;-69
2021/01/28 02:17:08;;;;;;;202.47;30.30;;;;;;;;;;5090756;28;20180;-69
2021/01/28 02:19:51;;;;;;;97.03;22.60;;;;;;;;;;5086359;28;20200;-69
2021/01/28 02:22:31;;;;;;;168.37;27.13;;;;;;;;;;5085582;28;20183;-69
2021/01/28 02:25:15;;;;;;;111.13;21.20;;;;;;;;;;5089256;28;20295;-69
2021/01/28 02:27:41;;;;;;;45.00;17.93;;;;;;;;;;5087021;28;20542;-69
2021/01/28 02:30:07;;;;;;;94.63;19.77;;;;;;;;;;5088317;28;20187;-69
2021/01/28 02:32:32;;;;;;;110.30;19.60;;;;;;;;;;5077094;28;20169;-69
2021/01/28 02:34:57;;;;;;;101.83;21.13;;;;;;;;;;5084127;28;20503;-69
2021/01/28 02:37:22;;;;;;;257.30;31.37;;;;;;;;;;5088692;28;20684;-69
2021/01/28 02:39:48;;;;;;;55.43;16.73;;;;;;;;;;5085779;28;20203;-69
2021/01/28 02:42:19;;;;;;;78.93;18.90;;;;;;;;;;5088101;28;20175;-69
2021/01/28 02:44:44;;;;;;;57.77;17.50;;;;;;;;;;5090102;28;20196;-69
2021/01/28 02:47:10;;;;;;;76.97;19.00;;;;;;;;;;5084476;28;20658;-69
2021/01/28 02:49:35;;;;;;;49.93;15.97;;;;;;;;;;5082738;28;20184;-69
2021/01/28 02:52:00;;;;;;;238.80;30.30;;;;;;;;;;5084316;28;20212;-69
2021/01/28 02:54:26;;;;;;;75.97;17.73;;;;;;;;;;5084851;28;20237;-69
2021/01/28 02:56:51;;;;;;;320.00;37.70;;;;;;;;;;5084357;28;20649;-69
2021/01/28 02:59:16;;;;;;;84.63;18.33;;;;;;;;;;5090487;28;20245;-69
2021/01/28 03:01:41;;;;;;;99.10;20.90;;;;;;;;;;5081890;28;20176;-69
2021/01/28 03:04:10;;;;;;;100.23;21.10;;;;;;;;;;5091512;28;20636;-69
2021/01/28 03:06:35;;;;;;;161.70;27.90;;;;;;;;;;5081969;28;20553;-69
2021/01/28 03:09:01;;;;;;;109.93;21.70;;;;;;;;;;5081456;28;20179;-69
2021/01/28 03:11:27;;;;;;;249.07;30.13;;;;;;;;;;5080364;28;20646;-69
2021/01/28 03:13:53;;;;;;;238.40;32.93;;;;;;;;;;5081011;28;20212;-69
2021/01/28 03:16:18;;;;;;;78.23;19.30;;;;;;;;;;5087316;28;20649;-69
2021/01/28 03:18:43;;;;;;;173.43;24.57;;;;;;;;;;5084388;28;20278;-68
2021/01/28 03:21:08;;;;;;;147.57;24.40;;;;;;;;;;5083600;28;20173;-69
2021/01/28 03:23:34;;;;;;;153.97;25.00;;;;;;;;;;5081777;28;20204;-69
2021/01/28 03:25:59;;;;;;;125.03;22.27;;;;;;;;;;5083732;28;20211;-69
2021/01/28 03:28:24;;;;;;;132.77;21.93;;;;;;;;;;5087332;28;20176;-68
2021/01/28 03:30:50;;;;;;;68.37;18.63;;;;;;;;;;5088783;28;20176;-69
2021/01/28 03:33:17;;;;;;;181.37;28.93;;;;;;;;;;5089660;28;20192;-69
2021/01/28 03:35:42;;;;;;;78.43;21.77;;;;;;;;;;5085517;28;20193;-69
2021/01/28 03:38:08;;;;;;;160.20;27.37;;;;;;;;;;5080086;28;20278;-69
2021/01/28 03:40:35;;;;;;;76.17;22.07;;;;;;;;;;5088353;28;20740;-69
2021/01/28 03:43:00;;;;;;;52.73;20.30;;;;;;;;;;5087654;28;20197;-69
2021/01/28 03:45:27;;;;;;;51.70;20.03;;;;;;;;;;5086370;28;20663;-69
2021/01/28 03:47:52;;;;;;;90.90;24.97;;;;;;;;;;5082637;28;20235;-69
2021/01/28 03:50:19;;;;;;;42.87;17.43;;;;;;;;;;5083381;28;20570;-68
2021/01/28 03:52:45;;;;;;;61.00;19.23;;;;;;;;;;5076492;28;20681;-68
2021/01/28 03:55:10;;;;;;;73.63;19.87;;;;;;;;;;5088627;28;20173;-69
2021/01/28 03:57:35;;;;;;;74.23;19.77;;;;;;;;;;5084172;28;20176;-69
2021/01/28 04:00:00;;;;;;;104.70;22.40;;;;;;;;;;5081807;28;20169;-69
2021/01/28 04:02:26;;;;;;;64.87;20.77;;;;;;;;;;5075575;28;20204;-69
2021/01/28 04:04:51;;;;;;;106.87;21.60;;;;;;;;;;5084966;28;20201;-69
2021/01/28 04:07:16;;;;;;;89.87;20.97;;;;;;;;;;5089277;28;20247;-69
2021/01/28 04:09:41;;;;;;;63.37;19.93;;;;;;;;;;5085207;28;20558;-69
2021/01/28 04:12:07;;;;;;;61.80;19.97;;;;;;;;;;5082887;28;20180;-69
2021/01/28 04:14:32;;;;;;;59.93;18.87;;;;;;;;;;5083660;28;20678;-69
2021/01/28 04:16:57;;;;;;;45.90;18.07;;;;;;;;;;5076653;28;20686;-69
2021/01/28 04:19:22;;;;;;;80.57;23.70;;;;;;;;;;5081438;28;20214;-69
2021/01/28 04:21:47;;;;;;;46.70;18.93;;;;;;;;;;5084661;28;20176;-69
2021/01/28 04:24:13;;;;;;;173.53;29.33;;;;;;;;;;5081724;28;20203;-69
2021/01/28 04:26:39;;;;;;;95.67;22.93;;;;;;;;;;5083237;28;20188;-69
2021/01/28 04:29:05;;;;;;;224.20;31.13;;;;;;;;;;5082613;28;20177;-69
2021/01/28 04:31:30;;;;;;;177.43;31.13;;;;;;;;;;5085993;28;20313;-69
2021/01/28 04:33:55;;;;;;;181.63;29.50;;;;;;;;;;5080028;28;20225;-69
2021/01/28 04:36:20;;;;;;;53.27;20.77;;;;;;;;;;5085073;28;20199;-69
2021/01/28 04:38:46;;;;;;;120.57;25.67;;;;;;;;;;5080848;28;20192;-69
2021/01/28 04:41:14;;;;;;;159.77;28.50;;;;;;;;;;5084179;28;20666;-69
2021/01/28 04:43:39;;;;;;;244.07;37.10;;;;;;;;;;5082081;28;20207;-69
2021/01/28 04:46:05;;;;;;;105.23;24.47;;;;;;;;;;5079267;28;20168;-69
2021/01/28 04:48:31;;;;;;;171.77;28.23;;;;;;;;;;5080186;28;20200;-69
2021/01/28 04:50:58;;;;;;;141.07;27.67;;;;;;;;;;5080647;28;20593;-69
2021/01/28 04:53:31;;;;;;;243.13;35.00;;;;;;;;;;5085859;28;20265;-69
2021/01/28 04:55:57;;;;;;;109.80;26.93;;;;;;;;;;5080523;28;20246;-69
2021/01/28 04:58:22;;;;;;;125.43;25.60;;;;;;;;;;5078623;28;20616;-69
2021/01/28 05:00:47;;;;;;;125.77;26.97;;;;;;;;;;5079449;28;20180;-69
2021/01/28 05:03:21;;;;;;;112.43;27.80;;;;;;;;;;5087130;28;20188;-69
2021/01/28 05:05:48;;;;;;;106.47;25.53;;;;;;;;;;5084675;28;20629;-69
2021/01/28 05:08:14;;;;;;;204.00;32.50;;;;;;;;;;5084211;28;20676;-69
2021/01/28 05:10:43;;;;;;;114.97;27.07;;;;;;;;;;5081844;28;20200;-69
2021/01/28 05:13:09;;;;;;;98.00;25.27;;;;;;;;;;5079859;28;20193;-69
2021/01/28 05:15:35;;;;;;;101.53;26.03;;;;;;;;;;5077466;28;20341;-69
2021/01/28 05:18:03;;;;;;;117.80;29.03;;;;;;;;;;5081675;28;20223;-69
2021/01/28 05:20:29;;;;;;;120.23;31.70;;;;;;;;;;5082778;28;20225;-69
2021/01/28 05:22:58;;;;;;;124.90;29.60;;;;;;;;;;5076152;28;20188;-69
2021/01/28 05:25:26;;;;;;;111.23;28.87;;;;;;;;;;5083495;28;20251;-69
2021/01/28 05:27:52;;;;;;;95.63;28.23;;;;;;;;;;5080341;28;20200;-70
2021/01/28 05:30:34;;;;;;;118.57;27.77;;;;;;;;;;5085056;28;20172;-69
2021/01/28 05:32:59;;;;;;;99.60;28.30;;;;;;;;;;5082694;28;20557;-69
2021/01/28 05:35:25;;;;;;;135.40;29.60;;;;;;;;;;5088868;28;20175;-69
2021/01/28 05:38:01;;;;;;;124.07;29.77;;;;;;;;;;5087363;28;20767;-69
2021/01/28 05:40:27;;;;;;;68.13;26.30;;;;;;;;;;5076909;28;20184;-69
2021/01/28 05:42:53;;;;;;;81.73;26.40;;;;;;;;;;5085159;28;20191;-69
2021/01/28 05:45:18;;;;;;;67.83;25.97;;;;;;;;;;5088498;28;20231;-68
2021/01/28 05:47:43;;;;;;;72.88;25.00;;;;;;;;;;5083712;28;20656;-69
2021/01/28 05:50:16;;;;;;;67.67;24.70;;;;;;;;;;5082941;28;20665;-69
2021/01/28 05:52:41;;;;;;;92.20;26.90;;;;;;;;;;5087027;28;20721;-69
2021/01/28 05:55:07;;;;;;;66.80;25.50;;;;;;;;;;5087890;28;20256;-69
2021/01/28 05:57:43;;;;;;;68.47;23.47;;;;;;;;;;5078531;28;20200;-70
2021/01/28 06:00:08;;;;;;;57.70;22.47;;;;;;;;;;5083703;28;20382;-69
2021/01/28 06:02:52;;;;;;;53.50;23.10;;;;;;;;;;5081813;28;20172;-69
2021/01/28 06:05:38;;;;;;;49.43;22.53;;;;;;;;;;5086475;28;20484;-70
2021/01/28 06:08:06;;;;;;;46.77;22.17;;;;;;;;;;5077931;28;20188;-70
2021/01/28 06:10:37;;;;;;;52.07;22.00;;;;;;;;;;5082663;28;20461;-70
2021/01/28 06:13:05;;;;;;;45.87;21.37;;;;;;;;;;5078733;28;20193;-70
2021/01/28 06:15:52;;;;;;;42.20;19.83;;;;;;;;;;5082568;28;20847;-69
2021/01/28 06:18:24;;;;;;;45.20;19.93;;;;;;;;;;5078391;28;20199;-69
2021/01/28 06:20:52;;;;;;;46.17;20.73;;;;;;;;;;5084874;28;20198;-70
2021/01/28 06:23:35;;;;;;;41.20;20.50;;;;;;;;;;5079926;28;20191;-69
2021/01/28 06:26:00;;;;;;;46.00;19.77;;;;;;;;;;5084074;28;20179;-70
2021/01/28 06:28:25;;;;;;;38.58;18.10;;;;;;;;;;5079209;28;20172;-70
2021/01/28 06:31:14;;;;;;;43.53;18.83;;;;;;;;;;5080613;28;20192;-70
2021/01/28 06:33:50;;;;;;;39.67;18.10;;;;;;;;;;5083497;28;20192;-69
2021/01/28 06:36:33;;;;;;;34.17;17.40;;;;;;;;;;5075900;28;20205;-69
2021/01/28 06:39:05;;;;;;;35.43;17.23;;;;;;;;;;5077450;28;20201;-70
2021/01/28 06:41:32;;;;;;;39.03;17.80;;;;;;;;;;5082792;28;20204;-70
2021/01/28 06:44:03;;;;;;;31.67;15.20;;;;;;;;;;5087634;28;20612;-69
2021/01/28 06:46:31;;;;;;;34.53;16.93;;;;;;;;;;5087123;28;20180;-70
2021/01/28 06:49:14;;;;;;;36.87;15.87;;;;;;;;;;5082649;28;20165;-69
2021/01/28 06:51:45;;;;;;;29.13;15.07;;;;;;;;;;5079929;28;20188;-69
2021/01/28 06:54:14;;;;;;;30.47;14.17;;;;;;;;;;5080428;28;20711;-69
2021/01/28 06:56:45;;;;;;;31.23;14.80;;;;;;;;;;5075949;28;20183;-69
2021/01/28 06:59:30;;;;;;;32.03;14.33;;;;;;;;;;5078912;28;20278;-69
2021/01/28 07:02:07;;;;;;;28.23;13.57;;;;;;;;;;5088706;28;20200;-69
2021/01/28 07:04:38;;;;;;;29.63;14.53;;;;;;;;;;5089959;28;20249;-69
2021/01/28 07:07:12;;;;;;;24.10;11.67;;;;;;;;;;5085978;28;20218;-69
2021/01/28 07:09:42;;;;;;;24.20;12.10;;;;;;;;;;5085773;28;20645;-69
2021/01/28 07:12:09;;;;;;;27.33;13.63;;;;;;;;;;5082633;28;20608;-70
2021/01/28 07:14:34;;;;;;;23.37;11.50;;;;;;;;;;5078102;28;20731;-69
2021/01/28 07:17:06;;;;;;;25.40;11.80;;;;;;;;;;5084262;28;20192;-69
2021/01/28 07:19:33;;;;;;;24.47;11.47;;;;;;;;;;5076393;28;20208;-70
2021/01/28 07:22:16;;;;;;;21.10;10.30;;;;;;;;;;5080882;28;20183;-70
2021/01/28 07:24:41;;;;;;;19.93;9.13;;;;;;;;;;5082270;28;20196;-69
2021/01/28 07:27:07;;;;;;;20.53;8.50;;;;;;;;;;5076251;28;20173;-69
2021/01/28 07:29:39;;;;;;;21.23;9.87;;;;;;;;;;5091215;28;20176;-70
2021/01/28 07:32:05;;;;;;;25.33;9.77;;;;;;;;;;5079325;28;20172;-69
2021/01/28 07:34:30;;;;;;;18.37;8.63;;;;;;;;;;5075575;28;20283;-68
2021/01/28 07:37:16;;;;;;;20.20;9.00;;;;;;;;;;5076066;28;20271;-67
2021/01/28 07:39:41;;;;;;;14.10;6.90;;;;;;;;;;5092708;28;20234;-68
2021/01/28 07:42:15;;;;;;;17.20;7.70;;;;;;;;;;5093312;28;20255;-68
2021/01/28 07:44:44;;;;;;;16.40;7.87;;;;;;;;;;5083565;28;20202;-68
2021/01/28 07:47:33;;;;;;;14.07;7.23;;;;;;;;;;5079998;28;20276;-68
2021/01/28 07:50:15;;;;;;;16.63;7.90;;;;;;;;;;5081023;28;20223;-68
2021/01/28 07:52:41;;;;;;;12.67;7.17;;;;;;;;;;5077133;28;20194;-68
2021/01/28 07:55:25;;;;;;;16.40;7.10;;;;;;;;;;5074435;28;20254;-68
2021/01/28 07:57:50;;;;;;;15.30;7.17;;;;;;;;;;5074767;28;20575;-68
2021/01/28 08:00:18;;;;;;;15.67;7.07;;;;;;;;;;5071609;28;20172;-68
2021/01/28 08:02:43;;;;;;;15.80;7.67;;;;;;;;;;5081653;28;20176;-68
2021/01/28 08:05:18;;;;;;;10.83;5.67;;;;;;;;;;5079804;28;20168;-68
2021/01/28 08:07:45;;;;;;;12.33;6.83;;;;;;;;;;5090472;28;20168;-68
2021/01/28 08:10:13;;;;;;;12.50;6.30;;;;;;;;;;5079672;28;20222;-68
2021/01/28 08:12:45;;;;;;;15.90;7.27;;;;;;;;;;5085309;28;20191;-68
2021/01/28 08:15:16;;;;;;;15.93;7.23;;;;;;;;;;5071511;28;20185;-68
2021/01/28 08:17:41;;;;;;;17.70;8.00;;;;;;;;;;5084121;28;20276;-70
2021/01/28 08:20:23;;;;;;;15.50;8.00;;;;;;;;;;5073498;28;20292;-68
2021/01/28 08:22:55;;;;;;;15.90;6.53;;;;;;;;;;5080720;28;20641;-68
2021/01/28 08:25:21;;;;;;;16.57;6.87;;;;;;;;;;5074892;28;20724;-68
2021/01/28 08:27:46;;;;;;;11.13;5.73;;;;;;;;;;5079406;28;20176;-68
2021/01/28 08:30:14;;;;;;;10.50;5.50;;;;;;;;;;5077961;28;20259;-68
2021/01/28 08:32:39;;;;;;;9.70;5.60;;;;;;;;;;5079451;28;20184;-68
2021/01/28 08:35:06;;;;;;;10.23;4.77;;;;;;;;;;5087214;28;20176;-68
2021/01/28 08:37:34;;;;;;;9.93;5.07;;;;;;;;;;5083747;28;20176;-67
2021/01/28 08:39:59;;;;;;;7.67;4.50;;;;;;;;;;5088378;28;20230;-68
2021/01/28 08:42:25;;;;;;;10.93;4.60;;;;;;;;;;5077897;28;20610;-68
2021/01/28 08:45:04;;;;;;;6.80;4.47;;;;;;;;;;5077955;28;20246;-69
2021/01/28 08:47:29;;;;;;;9.50;5.73;;;;;;;;;;5078049;28;20176;-69
2021/01/28 08:50:03;;;;;;;9.63;5.37;;;;;;;;;;5080250;28;20172;-68
2021/01/28 08:52:28;;;;;;;8.27;5.00;;;;;;;;;;5078495;28;20191;-68
2021/01/28 08:54:54;;;;;;;8.43;4.90;;;;;;;;;;5085863;28;20200;-68
2021/01/28 08:57:20;;;;;;;9.57;4.67;;;;;;;;;;5082543;28;20180;-68
2021/01/28 08:59:47;;;;;;;7.00;4.47;;;;;;;;;;5084952;28;20253;-69
2021/01/28 09:02:14;;;;;;;8.40;4.63;;;;;;;;;;5078209;28;20173;-69
2021/01/28 09:04:41;;;;;;;8.27;4.47;;;;;;;;;;5085984;28;20271;-68
2021/01/28 09:07:06;;;;;;;7.57;4.70;;;;;;;;;;5083300;28;20204;-68
2021/01/28 09:09:32;;;;;;;8.17;5.30;;;;;;;;;;5079130;28;20680;-69
2021/01/28 09:12:16;;;;;;;7.23;5.00;;;;;;;;;;5082091;28;20552;-69
2021/01/28 09:14:42;;;;;;;8.17;4.47;;;;;;;;;;5087965;28;20188;-69
2021/01/28 09:17:29;;;;;;;7.47;4.60;;;;;;;;;;5075522;28;20181;-68
2021/01/28 09:19:55;;;;;;;7.60;4.47;;;;;;;;;;5075829;28;20222;-68
2021/01/28 09:22:27;;;;;;;6.50;4.23;;;;;;;;;;5073270;28;20180;-68
2021/01/28 09:24:52;;;;;;;6.53;4.47;;;;;;;;;;5084615;28;20230;-68
2021/01/28 09:27:20;;;;;;;8.50;4.93;;;;;;;;;;5085849;28;20207;-68
2021/01/28 09:29:46;;;;;;;5.53;4.20;;;;;;;;;;5077762;28;20188;-69
2021/01/28 09:32:31;;;;;;;6.47;4.57;;;;;;;;;;5083679;28;20255;-68
2021/01/28 09:35:04;;;;;;;6.07;4.53;;;;;;;;;;5082570;28;20592;-68
2021/01/28 09:37:29;;;;;;;10.00;5.70;;;;;;;;;;5084669;28;20697;-68
2021/01/28 09:39:55;;;;;;;7.53;5.03;;;;;;;;;;5083955;28;20284;-68
2021/01/28 09:42:28;;;;;;;7.07;4.40;;;;;;;;;;5087251;28;20244;-69
2021/01/28 09:45:14;;;;;;;6.50;5.03;;;;;;;;;;5073603;28;20193;-68
2021/01/28 09:47:47;;;;;;;7.40;4.67;;;;;;;;;;5074576;28;20180;-68
2021/01/28 09:50:13;;;;;;;7.47;4.80;;;;;;;;;;5083212;28;20420;-69
2021/01/28 09:52:40;;;;;;;5.30;3.83;;;;;;;;;;5083167;28;20238;-69
2021/01/28 09:55:08;;;;;;;5.90;4.13;;;;;;;;;;5080582;28;20267;-68
2021/01/28 09:57:34;;;;;;;6.50;4.33;;;;;;;;;;5082831;28;20188;-68
2021/01/28 09:59:59;;;;;;;7.50;4.50;;;;;;;;;;5081111;28;20286;-69
2021/01/28 10:02:37;;;;;;;7.53;3.97;;;;;;;;;;5075840;28;20204;-69
2021/01/28 10:05:03;;;;;;;7.43;5.27;;;;;;;;;;5081762;28;20186;-68
2021/01/28 10:07:28;;;;;;;6.57;4.60;;;;;;;;;;5075891;28;20177;-69
2021/01/28 10:09:53;;;;;;;11.70;4.40;;;;;;;;;;5079762;28;20188;-69
2021/01/28 10:12:20;;;;;;;6.70;3.90;;;;;;;;;;5080238;28;20718;-69
2021/01/28 10:14:45;;;;;;;5.10;3.67;;;;;;;;;;5078371;28;20211;-69
2021/01/28 10:17:11;;;;;;;5.10;4.13;;;;;;;;;;5078427;28;20180;-68
2021/01/28 10:19:37;;;;;;;5.33;3.67;;;;;;;;;;5079164;28;20211;-68
2021/01/28 10:22:02;;;;;;;5.83;3.97;;;;;;;;;;5076802;28;20165;-68
2021/01/28 10:24:27;;;;;;;5.20;3.90;;;;;;;;;;5079939;28;20609;-69
2021/01/28 10:26:52;;;;;;;7.07;4.00;;;;;;;;;;5082256;28;20192;-68
2021/01/28 10:29:17;;;;;;;4.23;3.60;;;;;;;;;;5091621;28;20232;-69
2021/01/28 10:31:42;;;;;;;8.27;3.88;;;;;;;;;;5075978;28;20187;-69
2021/01/28 10:34:08;;;;;;;4.83;4.20;;;;;;;;;;5086521;28;20743;-69
2021/01/28 10:36:33;;;;;;;4.70;3.73;;;;;;;;;;5084796;28;20180;-68
2021/01/28 10:38:58;;;;;;;5.27;3.50;;;;;;;;;;5087683;28;20240;-69
2021/01/28 10:41:23;;;;;;;5.13;3.97;;;;;;;;;;5083189;28;20176;-69
2021/01/28 10:43:48;;;;;;;4.97;3.40;;;;;;;;;;5085435;28;20216;-68
2021/01/28 10:46:14;;;;;;;4.33;3.50;;;;;;;;;;5082521;28;20173;-69
2021/01/28 10:48:39;;;;;;;3.10;2.80;;;;;;;;;;5085185;28;20652;-69
2021/01/28 10:51:04;;;;;;;5.40;3.67;;;;;;;;;;5082120;28;20180;-69
2021/01/28 10:53:30;;;;;;;4.73;3.20;;;;;;;;;;5082990;28;20217;-68
2021/01/28 10:55:56;;;;;;;4.43;3.40;;;;;;;;;;5086416;28;20191;-68
2021/01/28 10:58:26;;;;;;;7.53;4.47;;;;;;;;;;5084197;28;20614;-68
2021/01/28 11:00:51;;;;;;;5.83;3.80;;;;;;;;;;5083354;28;20279;-69
2021/01/28 11:03:16;;;;;;;6.53;4.30;;;;;;;;;;5077526;28;20279;-69
2021/01/28 11:05:41;;;;;;;6.57;3.90;;;;;;;;;;5084301;28;20177;-69
2021/01/28 11:08:07;;;;;;;6.00;4.73;;;;;;;;;;5083849;28;20251;-69
2021/01/28 11:10:32;;;;;;;4.20;3.27;;;;;;;;;;5084818;28;20176;-69
2021/01/28 11:12:58;;;;;;;6.47;4.10;;;;;;;;;;5084435;28;20216;-69
2021/01/28 11:15:25;;;;;;;6.37;3.87;;;;;;;;;;5085169;28;20679;-69
2021/01/28 11:17:50;;;;;;;4.93;3.90;;;;;;;;;;5076079;28;20185;-68
2021/01/28 11:20:16;;;;;;;4.90;4.00;;;;;;;;;;5079878;28;20205;-68
2021/01/28 11:22:41;;;;;;;5.73;4.60;;;;;;;;;;5084687;28;20255;-69
2021/01/28 11:25:08;;;;;;;5.50;4.60;;;;;;;;;;5082169;28;20176;-69
2021/01/28 11:27:33;;;;;;;5.57;4.10;;;;;;;;;;5084057;28;20177;-68
2021/01/28 11:29:59;;;;;;;4.70;4.20;;;;;;;;;;5083089;28;20596;-68
2021/01/28 11:32:24;;;;;;;4.63;3.97;;;;;;;;;;5087678;28;20184;-67
2021/01/28 11:34:50;;;;;;;6.07;4.40;;;;;;;;;;5083085;28;20902;-68
2021/01/28 11:37:15;;;;;;;6.03;4.67;;;;;;;;;;5087147;28;20161;-69
2021/01/28 11:39:40;;;;;;;6.60;4.90;;;;;;;;;;5085457;28;20204;-69
2021/01/28 11:42:05;;;;;;;6.83;5.10;;;;;;;;;;5088434;28;20180;-68
2021/01/28 11:44:30;;;;;;;8.57;5.70;;;;;;;;;;5074064;28;20216;-69
2021/01/28 11:46:55;;;;;;;6.32;4.85;;;;;;;;;;5081723;28;20626;-68
2021/01/28 11:49:21;;;;;;;5.83;5.07;;;;;;;;;;5082769;28;20185;-69
2021/01/28 11:51:46;;;;;;;7.50;5.50;;;;;;;;;;5074691;28;20566;-68
2021/01/28 11:54:11;;;;;;;6.70;5.67;;;;;;;;;;5080774;28;20203;-69
2021/01/28 11:56:36;;;;;;;8.27;5.87;;;;;;;;;;5083397;28;20666;-68
2021/01/28 11:59:02;;;;;;;7.65;5.80;;;;;;;;;;5085728;28;20204;-68
2021/01/28 12:01:28;;;;;;;7.70;6.27;;;;;;;;;;5082191;28;20176;-68
2021/01/28 12:03:53;;;;;;;6.90;5.77;;;;;;;;;;5074929;28;20409;-69
2021/01/28 12:06:18;;;;;;;7.35;6.05;;;;;;;;;;5084316;28;20181;-69
2021/01/28 12:08:43;;;;;;;7.93;5.93;;;;;;;;;;5079084;28;20631;-69
2021/01/28 12:11:09;;;;;;;7.70;6.73;;;;;;;;;;5076270;28;20203;-68
2021/01/28 12:13:34;;;;;;;8.02;6.90;;;;;;;;;;5078414;28;20204;-68
2021/01/28 12:15:59;;;;;;;9.10;7.57;;;;;;;;;;5078511;28;20189;-68
2021/01/28 12:18:24;;;;;;;8.70;7.17;;;;;;;;;;5082660;28;20565;-68
2021/01/28 12:20:49;;;;;;;9.43;7.77;;;;;;;;;;5080138;28;20219;-68
2021/01/28 12:23:14;;;;;;;8.80;7.37;;;;;;;;;;5082034;28;21612;-68
2021/01/28 12:25:40;;;;;;;11.80;9.03;;;;;;;;;;5077455;28;20173;-69
2021/01/28 12:28:05;;;;;;;11.23;9.00;;;;;;;;;;5083798;28;20188;-68
2021/01/28 12:30:30;;;;;;;11.67;8.53;;;;;;;;;;5080833;28;20181;-69
2021/01/28 12:32:55;;;;;;;9.13;7.87;;;;;;;;;;5079581;28;20751;-69
2021/01/28 12:35:21;;;;;;;10.30;8.20;;;;;;;;;;5080824;28;20176;-69
2021/01/28 12:37:46;;;;;;;11.27;8.43;;;;;;;;;;5077240;28;20256;-69
2021/01/28 12:40:13;;;;;;;9.40;8.03;;;;;;;;;;5079129;28;20287;-69
2021/01/28 12:42:38;;;;;;;10.73;8.33;;;;;;;;;;5075000;28;20188;-69
2021/01/28 12:45:04;;;;;;;10.40;8.77;;;;;;;;;;5080142;28;20179;-68
2021/01/28 12:47:29;;;;;;;9.40;7.97;;;;;;;;;;5079973;28;20204;-70
2021/01/28 12:49:54;;;;;;;10.30;8.23;;;;;;;;;;5079593;28;20557;-69
2021/01/28 12:52:20;;;;;;;10.17;7.70;;;;;;;;;;5084278;28;20176;-69
2021/01/28 12:54:45;;;;;;;12.17;8.53;;;;;;;;;;5084088;28;20193;-69
2021/01/28 12:57:10;;;;;;;10.13;8.13;;;;;;;;;;5080877;28;20183;-69
2021/01/28 12:59:35;;;;;;;12.97;9.93;;;;;;;;;;5080634;28;20212;-69
2021/01/28 13:02:01;;;;;;;13.87;10.23;;;;;;;;;;5071554;28;20208;-68
2021/01/28 13:04:26;;;;;;;11.77;9.97;;;;;;;;;;5088415;28;20245;-69
2021/01/28 13:06:51;;;;;;;11.03;9.17;;;;;;;;;;5083020;28;20203;-69
2021/01/28 13:09:17;;;;;;;10.30;8.57;;;;;;;;;;5081967;28;20294;-69
2021/01/28 13:11:42;;;;;;;10.00;8.83;;;;;;;;;;5083584;28;20181;-69
2021/01/28 13:14:07;;;;;;;11.80;9.77;;;;;;;;;;5084697;28;20200;-69
2021/01/28 13:16:32;;;;;;;12.27;10.00;;;;;;;;;;5087153;28;20199;-69
2021/01/28 13:18:57;;;;;;;11.83;9.90;;;;;;;;;;5078514;28;20204;-70
2021/01/28 13:21:23;;;;;;;9.07;7.87;;;;;;;;;;5085581;28;20182;-69
2021/01/28 13:23:48;;;;;;;10.80;9.43;;;;;;;;;;5076235;28;20703;-69
2021/01/28 13:26:14;;;;;;;14.10;10.87;;;;;;;;;;5074574;28;20718;-69
2021/01/28 13:28:39;;;;;;;10.53;8.83;;;;;;;;;;5082387;28;20181;-68
2021/01/28 13:31:04;;;;;;;11.57;9.70;;;;;;;;;;5083700;28;20187;-69
2021/01/28 13:33:29;;;;;;;11.17;8.73;;;;;;;;;;5083519;28;20198;-69
2021/01/28 13:35:54;;;;;;;11.60;8.05;;;;;;;;;;5086667;28;20656;-69
2021/01/28 13:38:19;;;;;;;9.77;8.10;;;;;;;;;;5085931;28;20200;-69
2021/01/28 13:40:45;;;;;;;9.32;8.05;;;;;;;;;;5084191;28;20561;-69
2021/01/28 13:43:10;;;;;;;8.93;7.20;;;;;;;;;;5081444;28;20203;-69
2021/01/28 13:45:35;;;;;;;8.43;7.13;;;;;;;;;;5077618;28;20610;-69
2021/01/28 13:48:01;;;;;;;8.83;7.30;;;;;;;;;;5076422;28;20183;-69
2021/01/28 13:50:38;;;;;;;9.20;8.00;;;;;;;;;;5081618;28;20179;-68
2021/01/28 13:53:04;;;;;;;8.60;7.17;;;;;;;;;;5076945;28;20207;-69
2021/01/28 13:55:30;;;;;;;7.83;7.03;;;;;;;;;;5090181;28;20179;-69
2021/01/28 13:57:55;;;;;;;7.17;6.13;;;;;;;;;;5089356;28;20180;-69
2021/01/28 14:00:22;;;;;;;7.40;6.70;;;;;;;;;;5085449;28;20203;-69
2021/01/28 14:02:47;;;;;;;7.67;6.47;;;;;;;;;;5085882;28;20254;-70
2021/01/28 14:05:13;;;;;;;6.97;6.27;;;;;;;;;;5086465;28;20206;-69
2021/01/28 14:07:38;;;;;;;6.30;5.60;;;;;;;;;;5090203;28;20176;-69
2021/01/28 14:10:04;;;;;;;7.23;6.23;;;;;;;;;;5085529;28;20180;-69
2021/01/28 14:12:29;;;;;;;5.63;5.10;;;;;;;;;;5086394;28;20787;-69
2021/01/28 14:14:54;;;;;;;5.40;4.80;;;;;;;;;;5084242;28;20228;-69
2021/01/28 14:17:19;;;;;;;5.63;4.50;;;;;;;;;;5085179;28;20562;-69
2021/01/28 14:19:45;;;;;;;5.28;4.30;;;;;;;;;;5081646;28;20243;-69
2021/01/28 14:22:10;;;;;;;5.17;4.53;;;;;;;;;;5082319;28;20176;-69
2021/01/28 14:24:35;;;;;;;6.47;4.80;;;;;;;;;;5077062;28;20204;-69
2021/01/28 14:27:02;;;;;;;7.30;5.87;;;;;;;;;;5088852;28;20200;-69